createdAt,value
2019-04-20T00:01:31.998Z,94507.81
2019-04-20T00:03:57.377Z,94504.09
2019-04-20T00:06:27.112Z,94503.77
2019-04-20T00:09:01.829Z,94500.84
2019-04-20T00:11:28.340Z,94498.73
2019-04-20T00:14:03.257Z,94499.97
2019-04-20T00:16:25.176Z,94501.81
2019-04-20T00:18:58.216Z,94497.95
2019-04-20T00:21:46.989Z,94501.02
2019-04-20T00:24:27.291Z,94497.63
2019-04-20T00:27:16.214Z,94492.16
2019-04-20T00:29:47.824Z,94494.33
2019-04-20T00:32:06.316Z,94495.73
2019-04-20T00:34:31.450Z,94486.08
2019-04-20T00:36:56.145Z,94488.67
2019-04-20T00:39:25.764Z,94485.00
2019-04-20T00:42:01.095Z,94494.82
2019-04-20T00:44:30.386Z,94488.03
2019-04-20T00:47:08.465Z,94485.92
2019-04-20T00:49:38.896Z,94483.48
2019-04-20T00:54:30.555Z,94480.13
2019-04-20T00:57:09.274Z,94479.72
2019-04-20T00:59:51.764Z,94482.72
2019-04-20T01:02:18.017Z,94478.92
2019-04-20T01:04:47.936Z,94479.84
2019-04-20T01:07:39.462Z,94480.35
2019-04-20T01:10:04.999Z,94477.80
2019-04-20T01:12:36.873Z,94479.58
2019-04-20T01:15:07.809Z,94483.08
2019-04-20T01:17:37.941Z,94480.16
2019-04-20T01:20:05.181Z,94481.50
2019-04-20T01:22:40.273Z,94488.36
2019-04-20T01:25:09.837Z,94483.32
2019-04-20T01:27:50.118Z,94480.80
2019-04-20T01:30:14.739Z,94483.38
2019-04-20T01:32:55.165Z,94480.42
2019-04-20T01:35:29.019Z,94482.20
2019-04-20T01:37:57.500Z,94484.38
2019-04-20T01:40:11.373Z,94478.47
2019-04-20T01:42:42.469Z,94486.59
2019-04-20T01:45:18.029Z,94489.19
2019-04-20T01:47:47.199Z,94491.74
2019-04-20T01:50:20.309Z,94491.34
2019-04-20T01:52:55.019Z,94494.67
2019-04-20T01:55:34.637Z,94490.44
2019-04-20T01:58:11.889Z,94488.81
2019-04-20T02:00:39.910Z,94487.57
2019-04-20T02:03:31.315Z,94487.56
2019-04-20T02:06:04.487Z,94488.84
2019-04-20T02:08:29.869Z,94490.09
2019-04-20T02:11:01.921Z,94488.73
2019-04-20T02:13:36.134Z,94486.17
2019-04-20T02:16:09.766Z,94488.70
2019-04-20T02:18:40.100Z,94492.52
2019-04-20T02:21:15.197Z,94488.70
2019-04-20T02:23:38.472Z,94487.39
2019-04-20T02:26:00.774Z,94490.35
2019-04-20T02:28:56.867Z,94488.64
2019-04-20T02:31:55.371Z,94489.94
2019-04-20T02:34:06.968Z,94489.11
2019-04-20T02:36:53.225Z,94492.93
2019-04-20T02:42:05.429Z,94484.41
2019-04-20T02:44:42.627Z,94489.97
2019-04-20T02:46:55.842Z,94491.25
2019-04-20T02:51:52.711Z,94491.25
2019-04-20T02:54:26.454Z,94487.42
2019-04-20T03:01:45.536Z,94487.77
2019-04-20T03:03:58.234Z,94486.55
2019-04-20T03:06:36.576Z,94492.50
2019-04-20T03:09:20.141Z,94485.28
2019-04-20T03:11:58.471Z,94487.86
2019-04-20T03:14:16.358Z,94484.88
2019-04-20T03:16:43.678Z,94482.37
2019-04-20T03:19:11.788Z,94482.34
2019-04-20T03:21:54.188Z,94482.75
2019-04-20T03:24:26.834Z,94477.56
2019-04-20T03:27:20.904Z,94476.13
2019-04-20T03:30:22.548Z,94476.88
2019-04-20T03:33:02.269Z,94475.86
2019-04-20T03:35:19.992Z,94473.64
2019-04-20T03:37:49.816Z,94474.87
2019-04-20T03:40:09.894Z,94466.75
2019-04-20T03:42:26.729Z,94472.26
2019-04-20T03:45:00.525Z,94473.56
2019-04-20T03:47:36.977Z,94476.95
2019-04-20T03:50:18.541Z,94474.84
2019-04-20T03:52:57.755Z,94476.56
2019-04-20T03:55:51.248Z,94474.87
2019-04-20T03:58:24.439Z,94478.27
2019-04-20T04:01:03.888Z,94476.59
2019-04-20T04:03:53.419Z,94470.28
2019-04-20T04:06:16.084Z,94471.19
2019-04-20T04:08:39.529Z,94475.09
2019-04-20T04:11:26.212Z,94478.55
2019-04-20T04:13:37.776Z,94474.75
2019-04-20T04:16:10.181Z,94474.79
2019-04-20T04:18:40.988Z,94481.58
2019-04-20T04:21:12.654Z,94474.39
2019-04-20T04:23:56.150Z,94475.26
2019-04-20T04:26:27.532Z,94470.13
2019-04-20T04:28:56.328Z,94473.52
2019-04-20T04:31:33.624Z,94471.80
2019-04-20T04:34:12.480Z,94467.06
2019-04-20T04:36:26.139Z,94465.69
2019-04-20T04:39:06.020Z,94475.86
2019-04-20T04:41:31.093Z,94476.67
2019-04-20T04:44:00.167Z,94471.48
2019-04-20T04:46:14.477Z,94475.28
2019-04-20T04:48:48.278Z,94476.08
2019-04-20T04:51:21.193Z,94470.98
2019-04-20T04:53:55.116Z,94485.02
2019-04-20T04:56:22.174Z,94483.78
2019-04-20T04:58:49.600Z,94490.56
2019-04-20T05:01:22.602Z,94485.06
2019-04-20T05:04:19.233Z,94482.94
2019-04-20T05:06:33.031Z,94488.19
2019-04-20T05:08:54.844Z,94489.53
2019-04-20T05:11:21.702Z,94491.69
2019-04-20T05:13:56.628Z,94489.56
2019-04-20T05:16:42.151Z,94491.72
2019-04-20T05:19:15.898Z,94491.75
2019-04-20T05:22:03.941Z,94490.91
2019-04-20T05:24:48.159Z,94492.55
2019-04-20T05:27:51.275Z,94493.77
2019-04-20T05:30:01.524Z,94493.33
2019-04-20T05:32:39.677Z,94488.99
2019-04-20T05:35:23.767Z,94491.48
2019-04-20T05:40:22.714Z,94490.86
2019-04-20T05:43:01.907Z,94487.34
2019-04-20T05:45:24.907Z,94488.47
2019-04-20T05:47:52.439Z,94487.88
2019-04-20T05:50:31.557Z,94477.53
2019-04-20T05:53:07.724Z,94485.47
2019-04-20T05:55:35.787Z,94484.85
2019-04-20T05:58:02.102Z,94480.83
2019-04-20T06:00:37.452Z,94481.83
2019-04-20T06:03:02.356Z,94479.91
2019-04-20T06:05:38.560Z,94484.69
2019-04-20T06:08:05.464Z,94483.69
2019-04-20T06:10:40.204Z,94480.52
2019-04-20T06:13:00.256Z,94479.84
2019-04-20T06:15:46.830Z,94483.86
2019-04-20T06:18:28.906Z,94478.43
2019-04-20T06:21:12.105Z,94474.11
2019-04-20T06:23:56.413Z,94475.42
2019-04-20T06:26:43.466Z,94477.67
2019-04-20T06:28:50.832Z,94476.75
2019-04-20T06:31:42.171Z,94477.54
2019-04-20T06:34:33.118Z,94479.31
2019-04-20T06:36:57.332Z,94485.29
2019-04-20T06:42:10.791Z,94481.63
2019-04-20T06:52:23.370Z,94482.48
2019-04-20T06:55:03.207Z,94481.34
2019-04-20T06:57:34.603Z,94482.52
2019-04-20T07:00:08.574Z,94479.56
2019-04-20T07:02:35.953Z,94482.28
2019-04-20T07:05:05.357Z,94479.23
2019-04-20T07:07:33.891Z,94476.65
2019-04-20T07:12:32.783Z,94474.77
2019-04-20T07:14:55.558Z,94476.89
2019-04-20T07:20:42.738Z,94474.59
2019-04-20T07:25:40.298Z,94480.69
2019-04-20T07:28:09.806Z,94482.36
2019-04-20T07:30:35.691Z,94479.08
2019-04-20T07:33:04.302Z,94481.47
2019-04-20T07:35:38.784Z,94477.45
2019-04-20T07:38:23.407Z,94477.48
2019-04-20T07:40:35.639Z,94480.98
2019-04-20T07:43:02.893Z,94467.37
2019-04-20T07:45:33.194Z,94479.51
2019-04-20T07:48:13.665Z,94473.86
2019-04-20T07:50:32.481Z,94468.63
2019-04-20T07:53:01.535Z,94468.48
2019-04-20T07:55:46.046Z,94467.63
2019-04-20T07:58:01.318Z,94459.41
2019-04-20T08:00:51.063Z,94458.87
2019-04-20T08:03:44.213Z,94465.42
2019-04-20T08:06:16.496Z,94462.39
2019-04-20T08:08:56.068Z,94463.13
2019-04-20T08:11:22.884Z,94463.49
2019-04-20T08:14:02.010Z,94467.53
2019-04-20T08:16:40.850Z,94470.28
2019-04-20T08:18:53.789Z,94470.13
2019-04-20T08:21:32.702Z,94467.16
2019-04-20T08:23:58.145Z,94467.16
2019-04-20T08:26:16.231Z,94468.80
2019-04-20T08:28:52.845Z,94474.71
2019-04-20T08:31:50.478Z,94469.15
2019-04-20T08:34:32.447Z,94468.35
2019-04-20T08:36:56.628Z,94469.00
2019-04-20T08:39:37.469Z,94467.23
2019-04-20T08:42:01.295Z,94464.39
2019-04-20T08:44:51.453Z,94467.91
2019-04-20T08:47:10.284Z,94460.65
2019-04-20T08:49:37.820Z,94466.77
2019-04-20T08:54:28.341Z,94457.19
2019-04-20T08:56:45.169Z,94463.73
2019-04-20T08:59:09.518Z,94460.03
2019-04-20T09:01:39.406Z,94461.22
2019-04-20T09:04:17.772Z,94458.53
2019-04-20T09:06:52.205Z,94458.39
2019-04-20T09:09:37.772Z,94450.67
2019-04-20T09:12:16.815Z,94448.81
2019-04-20T09:14:21.393Z,94458.11
2019-04-20T09:16:59.780Z,94454.91
2019-04-20T09:19:37.951Z,94457.31
2019-04-20T09:22:24.452Z,94453.41
2019-04-20T09:25:14.475Z,94453.89
2019-04-20T09:27:28.501Z,94452.75
2019-04-20T09:30:00.198Z,94451.73
2019-04-20T09:32:35.710Z,94451.91
2019-04-20T09:35:07.806Z,94451.11
2019-04-20T09:37:47.314Z,94447.92
2019-04-20T09:40:45.466Z,94449.70
2019-04-20T09:43:02.296Z,94443.19
2019-04-20T09:45:56.424Z,94449.84
2019-04-20T09:48:31.762Z,94454.25
2019-04-20T09:51:15.025Z,94452.75
2019-04-20T09:53:35.703Z,94454.48
2019-04-20T09:56:08.840Z,94453.37
2019-04-20T09:58:37.879Z,94449.22
2019-04-20T10:01:08.357Z,94447.63
2019-04-20T10:03:24.763Z,94441.48
2019-04-20T10:05:53.649Z,94443.12
2019-04-20T10:08:22.246Z,94437.28
2019-04-20T10:10:51.188Z,94442.60
2019-04-20T10:13:22.574Z,94444.86
2019-04-20T10:15:51.278Z,94446.58
2019-04-20T10:18:19.913Z,94439.98
2019-04-20T10:20:47.789Z,94436.58
2019-04-20T10:23:16.491Z,94436.91
2019-04-20T10:25:44.747Z,94434.79
2019-04-20T10:28:13.863Z,94441.09
2019-04-20T10:30:41.733Z,94437.58
2019-04-20T10:33:10.023Z,94432.20
2019-04-20T10:35:37.403Z,94427.53
2019-04-20T10:38:09.585Z,94435.28
2019-04-20T10:40:46.144Z,94422.91
2019-04-20T10:43:08.075Z,94430.30
2019-04-20T10:45:37.038Z,94429.67
2019-04-20T10:48:05.486Z,94424.52
2019-04-20T10:50:34.760Z,94427.22
2019-04-20T10:53:03.687Z,94427.11
2019-04-20T10:55:31.511Z,94431.66
2019-04-20T10:58:01.712Z,94429.23
2019-04-20T11:00:41.920Z,94424.00
2019-04-20T11:03:11.678Z,94420.00
2019-04-20T11:05:40.573Z,94426.77
2019-04-20T11:08:08.575Z,94432.06
2019-04-20T11:10:52.054Z,94429.00
2019-04-20T11:13:07.562Z,94422.66
2019-04-20T11:15:36.378Z,94429.66
2019-04-20T11:18:05.049Z,94421.05
2019-04-20T11:20:35.203Z,94419.39
2019-04-20T11:23:06.603Z,94420.38
2019-04-20T11:25:35.324Z,94415.30
2019-04-20T11:28:04.033Z,94411.55
2019-04-20T11:30:32.424Z,94409.27
2019-04-20T11:33:02.325Z,94412.86
2019-04-20T11:35:35.999Z,94415.21
2019-04-20T11:38:01.376Z,94415.00
2019-04-20T11:40:29.321Z,94412.03
2019-04-20T11:42:57.504Z,94405.75
2019-04-20T11:45:26.782Z,94402.75
2019-04-20T11:47:55.757Z,94398.95
2019-04-20T11:50:25.199Z,94398.68
2019-04-20T11:52:53.214Z,94399.44
2019-04-20T11:55:22.374Z,94395.14
2019-04-20T11:57:51.356Z,94388.36
2019-04-20T12:00:25.619Z,94386.08
2019-04-20T12:03:23.060Z,94390.30
2019-04-20T12:05:46.619Z,94380.98
2019-04-20T12:08:13.189Z,94377.80
2019-04-20T12:10:43.615Z,94382.44
2019-04-20T12:13:14.663Z,94381.75
2019-04-20T12:15:43.509Z,94381.64
2019-04-20T12:18:11.661Z,94384.63
2019-04-20T12:20:40.836Z,94381.59
2019-04-20T12:23:10.435Z,94379.36
2019-04-20T12:25:40.881Z,94374.20
2019-04-20T12:28:11.580Z,94374.35
2019-04-20T12:30:40.089Z,94371.48
2019-04-20T12:33:09.166Z,94373.37
2019-04-20T12:35:38.389Z,94373.21
2019-04-20T12:38:07.434Z,94370.64
2019-04-20T12:40:35.818Z,94365.10
2019-04-20T12:43:04.776Z,94364.81
2019-04-20T12:45:33.552Z,94369.19
2019-04-20T12:48:01.810Z,94370.40
2019-04-20T12:50:29.884Z,94366.34
2019-04-20T12:52:58.611Z,94371.44
2019-04-20T12:55:28.350Z,94373.21
2019-04-20T12:57:56.959Z,94369.66
2019-04-20T13:00:41.455Z,94368.77
2019-04-20T13:03:13.746Z,94355.66
2019-04-20T13:05:43.625Z,94369.11
2019-04-20T13:08:13.794Z,94364.83
2019-04-20T13:10:45.033Z,94360.83
2019-04-20T13:13:36.558Z,94359.20
2019-04-20T13:16:16.344Z,94351.50
2019-04-20T13:18:50.898Z,94350.58
2019-04-20T13:21:19.090Z,94349.62
2019-04-20T13:23:47.375Z,94350.63
2019-04-20T13:26:15.675Z,94342.28
2019-04-20T13:28:44.040Z,94347.20
2019-04-20T13:31:13.537Z,94344.36
2019-04-20T13:33:43.214Z,94352.08
2019-04-20T13:36:12.492Z,94344.08
2019-04-20T13:38:40.456Z,94335.52
2019-04-20T13:41:09.505Z,94335.88
2019-04-20T13:43:39.649Z,94331.80
2019-04-20T13:46:09.061Z,94335.33
2019-04-20T13:48:39.050Z,94332.47
2019-04-20T13:51:07.851Z,94331.33
2019-04-20T13:53:37.148Z,94330.68
2019-04-20T13:56:05.792Z,94319.50
2019-04-20T13:58:51.886Z,94319.33
2019-04-20T14:01:41.136Z,94318.58
2019-04-20T14:04:16.549Z,94314.37
2019-04-20T14:06:45.670Z,94308.41
2019-04-20T14:09:13.550Z,94300.76
2019-04-20T14:11:43.326Z,94298.35
2019-04-20T14:14:13.110Z,94303.20
2019-04-20T14:16:41.462Z,94298.94
2019-04-20T14:19:09.329Z,94297.34
2019-04-20T14:21:38.445Z,94288.59
2019-04-20T14:24:06.736Z,94286.73
2019-04-20T14:26:38.596Z,94283.49
2019-04-20T14:29:05.545Z,94279.01
2019-04-20T14:31:34.009Z,94286.27
2019-04-20T14:34:04.648Z,94291.53
2019-04-20T14:36:32.942Z,94279.35
2019-04-20T14:39:02.445Z,94280.19
2019-04-20T14:41:30.730Z,94280.22
2019-04-20T14:43:58.657Z,94284.61
2019-04-20T14:46:27.888Z,94277.05
2019-04-20T14:48:56.680Z,94276.89
2019-04-20T14:51:25.803Z,94266.64
2019-04-20T14:53:54.119Z,94264.23
2019-04-20T14:56:23.454Z,94267.73
2019-04-20T14:58:57.635Z,94257.69
2019-04-20T15:01:34.704Z,94261.77
2019-04-20T15:04:09.331Z,94260.02
2019-04-20T15:06:36.151Z,94265.34
2019-04-20T15:09:06.457Z,94255.16
2019-04-20T15:11:40.741Z,94256.97
2019-04-20T15:14:08.866Z,94253.11
2019-04-20T15:16:38.360Z,94259.70
2019-04-20T15:19:41.462Z,94252.58
2019-04-20T15:22:27.381Z,94248.09
2019-04-20T15:24:55.726Z,94244.32
2019-04-20T15:27:24.630Z,94248.94
2019-04-20T15:29:53.995Z,94237.92
2019-04-20T15:32:22.908Z,94246.92
2019-04-20T15:34:51.040Z,94236.81
2019-04-20T15:37:20.209Z,94233.53
2019-04-20T15:39:49.024Z,94240.73
2019-04-20T15:42:17.423Z,94234.93
2019-04-20T15:44:45.625Z,94232.83
2019-04-20T15:47:13.478Z,94236.30
2019-04-20T15:49:42.041Z,94235.66
2019-04-20T15:52:12.502Z,94234.89
2019-04-20T15:54:41.030Z,94226.36
2019-04-20T15:57:16.524Z,94227.53
2019-04-20T15:59:40.450Z,94227.72
2019-04-20T16:02:23.313Z,94221.89
2019-04-20T16:05:16.559Z,94222.23
2019-04-20T16:07:51.109Z,94218.12
2019-04-20T16:10:15.270Z,94218.41
2019-04-20T16:12:44.808Z,94219.30
2019-04-20T16:15:13.667Z,94219.63
2019-04-20T16:17:45.939Z,94221.50
2019-04-20T16:20:17.898Z,94216.70
2019-04-20T16:22:42.684Z,94221.95
2019-04-20T16:25:23.481Z,94220.98
2019-04-20T16:27:51.868Z,94218.73
2019-04-20T16:30:20.159Z,94216.48
2019-04-20T16:32:48.387Z,94213.54
2019-04-20T16:35:16.657Z,94209.41
2019-04-20T16:37:44.949Z,94210.39
2019-04-20T16:40:13.763Z,94213.98
2019-04-20T16:42:42.733Z,94210.56
2019-04-20T16:45:11.725Z,94210.40
2019-04-20T16:47:39.922Z,94204.06
2019-04-20T16:50:09.176Z,94208.33
2019-04-20T16:52:38.896Z,94207.38
2019-04-20T16:55:08.240Z,94201.00
2019-04-20T16:57:39.673Z,94205.63
2019-04-20T17:00:07.563Z,94201.61
2019-04-20T17:02:36.215Z,94194.31
2019-04-20T17:05:05.206Z,94196.69
2019-04-20T17:07:37.282Z,94198.30
2019-04-20T17:10:07.510Z,94196.05
2019-04-20T17:12:35.904Z,94196.55
2019-04-20T17:15:05.515Z,94200.98
2019-04-20T17:17:33.897Z,94200.21
2019-04-20T17:20:02.153Z,94202.09
2019-04-20T17:22:30.068Z,94194.66
2019-04-20T17:24:58.407Z,94198.48
2019-04-20T17:27:46.827Z,94196.48
2019-04-20T17:30:39.982Z,94197.59
2019-04-20T17:33:24.052Z,94199.72
2019-04-20T17:35:57.265Z,94204.65
2019-04-20T17:38:22.329Z,94202.36
2019-04-20T17:41:06.378Z,94202.36
2019-04-20T17:43:30.611Z,94204.52
2019-04-20T17:45:58.216Z,94202.25
2019-04-20T17:48:33.300Z,94203.68
2019-04-20T17:51:10.865Z,94207.38
2019-04-20T17:53:47.390Z,94205.58
2019-04-20T17:56:10.484Z,94206.89
2019-04-20T17:58:41.338Z,94207.34
2019-04-20T18:01:52.812Z,94208.93
2019-04-20T18:04:44.329Z,94213.73
2019-04-20T18:06:56.009Z,94213.44
2019-04-20T18:09:34.574Z,94215.22
2019-04-20T18:11:47.218Z,94215.26
2019-04-20T18:14:35.785Z,94213.34
2019-04-20T18:17:06.642Z,94212.34
2019-04-20T18:19:24.800Z,94215.30
2019-04-20T18:21:58.243Z,94215.66
2019-04-20T18:24:50.994Z,94214.72
2019-04-20T18:27:18.760Z,94217.18
2019-04-20T18:29:49.107Z,94218.20
2019-04-20T18:32:09.361Z,94218.36
2019-04-20T18:35:06.648Z,94221.95
2019-04-20T18:37:34.432Z,94223.73
2019-04-20T18:40:10.754Z,94226.11
2019-04-20T18:42:39.843Z,94218.08
2019-04-20T18:45:21.664Z,94231.02
2019-04-20T18:47:59.232Z,94234.13
2019-04-20T18:50:16.528Z,94234.34
2019-04-20T18:52:39.935Z,94236.98
2019-04-20T18:55:17.383Z,94234.33
2019-04-20T18:57:41.609Z,94240.94
2019-04-20T19:00:17.999Z,94243.86
2019-04-20T19:02:46.854Z,94250.06
2019-04-20T19:05:13.617Z,94248.08
2019-04-20T19:07:52.593Z,94245.70
2019-04-20T19:10:18.621Z,94252.73
2019-04-20T19:12:52.290Z,94254.70
2019-04-20T19:15:53.370Z,94254.73
2019-04-20T19:18:20.904Z,94249.32
2019-04-20T19:20:41.359Z,94252.78
2019-04-20T19:23:10.325Z,94252.38
2019-04-20T19:25:40.936Z,94256.16
2019-04-20T19:28:08.899Z,94251.67
2019-04-20T19:30:46.828Z,94246.91
2019-04-20T19:33:27.577Z,94248.29
2019-04-20T19:35:52.239Z,94247.76
2019-04-20T19:38:19.894Z,94248.13
2019-04-20T19:40:53.863Z,94247.52
2019-04-20T19:43:22.646Z,94244.86
2019-04-20T19:46:24.419Z,94242.54
2019-04-20T19:48:27.899Z,94241.83
2019-04-20T19:51:08.377Z,94248.52
2019-04-20T19:53:36.704Z,94251.50
2019-04-20T19:55:58.851Z,94255.60
2019-04-20T19:58:30.349Z,94250.27
2019-04-20T20:00:51.358Z,94247.97
2019-04-20T20:03:17.619Z,94256.37
2019-04-20T20:05:48.324Z,94254.94
2019-04-20T20:08:21.016Z,94253.27
2019-04-20T20:10:46.389Z,94251.67
2019-04-20T20:13:15.054Z,94255.64
2019-04-20T20:15:45.092Z,94255.84
2019-04-20T20:18:30.877Z,94256.86
2019-04-20T20:21:00.201Z,94256.53
2019-04-20T20:23:14.359Z,94252.70
2019-04-20T20:25:45.914Z,94252.43
2019-04-20T20:28:25.875Z,94253.94
2019-04-20T20:30:57.760Z,94253.10
2019-04-20T20:33:29.359Z,94247.16
2019-04-20T20:35:53.542Z,94258.04
2019-04-20T20:38:22.416Z,94249.67
2019-04-20T20:41:00.076Z,94255.59
2019-04-20T20:43:28.162Z,94259.80
2019-04-20T20:46:01.076Z,94261.31
2019-04-20T20:48:29.683Z,94255.63
2019-04-20T20:51:06.458Z,94253.14
2019-04-20T20:53:36.346Z,94245.17
2019-04-20T20:56:01.921Z,94247.48
2019-04-20T20:58:33.684Z,94250.48
2019-04-20T21:00:57.556Z,94244.09
2019-04-20T21:03:29.225Z,94245.82
2019-04-20T21:05:51.562Z,94246.27
2019-04-20T21:08:21.631Z,94242.89
2019-04-20T21:10:51.085Z,94238.16
2019-04-20T21:13:21.285Z,94240.03
2019-04-20T21:15:57.553Z,94233.23
2019-04-20T21:18:43.647Z,94234.02
2019-04-20T21:21:06.523Z,94237.67
2019-04-20T21:23:34.169Z,94237.81
2019-04-20T21:26:07.121Z,94232.41
2019-04-20T21:28:40.520Z,94234.45
2019-04-20T21:31:15.988Z,94226.55
2019-04-20T21:33:40.852Z,94227.95
2019-04-20T21:36:14.581Z,94221.18
2019-04-20T21:38:42.740Z,94222.38
2019-04-20T21:41:15.026Z,94219.44
2019-04-20T21:43:44.442Z,94216.96
2019-04-20T21:46:13.454Z,94217.41
2019-04-20T21:48:55.923Z,94211.77
2019-04-20T21:51:27.031Z,94206.27
2019-04-20T21:53:42.446Z,94204.66
2019-04-20T21:56:12.225Z,94202.98
2019-04-20T21:58:48.156Z,94197.45
2019-04-20T22:01:18.576Z,94198.16
2019-04-20T22:03:40.583Z,94201.02
2019-04-20T22:06:09.012Z,94199.34
2019-04-20T22:08:40.432Z,94194.88
2019-04-20T22:11:08.130Z,94198.22
2019-04-20T22:13:39.863Z,94198.34
2019-04-20T22:16:10.604Z,94201.48
2019-04-20T22:18:48.565Z,94207.63
2019-04-20T22:21:17.455Z,94202.92
2019-04-20T22:23:58.278Z,94203.02
2019-04-20T22:26:18.785Z,94203.97
2019-04-20T22:28:38.293Z,94204.16
2019-04-20T22:31:06.678Z,94203.89
2019-04-20T22:33:39.807Z,94198.41
2019-04-20T22:36:07.849Z,94201.46
2019-04-20T22:38:58.110Z,94204.10
2019-04-20T22:41:27.734Z,94203.38
2019-04-20T22:43:55.041Z,94195.95
2019-04-20T22:46:29.057Z,94193.58
2019-04-20T22:49:14.375Z,94191.97
2019-04-20T22:51:39.962Z,94186.20
2019-04-20T22:54:12.287Z,94183.37
2019-04-20T22:56:42.053Z,94180.92
2019-04-20T22:59:02.219Z,94181.98
2019-04-20T23:01:32.147Z,94172.81
2019-04-20T23:03:54.893Z,94180.65
2019-04-20T23:06:25.330Z,94175.70
2019-04-20T23:08:59.515Z,94173.35
2019-04-20T23:11:28.474Z,94172.52
2019-04-20T23:13:53.834Z,94168.80
2019-04-20T23:16:21.440Z,94167.62
2019-04-20T23:18:49.944Z,94171.07
2019-04-20T23:21:19.677Z,94169.87
2019-04-20T23:23:52.541Z,94162.33
2019-04-20T23:26:27.869Z,94163.61
2019-04-20T23:28:53.600Z,94166.25
2019-04-20T23:31:22.292Z,94161.59
2019-04-20T23:33:49.894Z,94163.06
2019-04-20T23:36:30.359Z,94161.05
2019-04-20T23:38:54.634Z,94162.80
2019-04-20T23:41:20.071Z,94160.30
2019-04-20T23:44:18.955Z,94160.73
2019-04-20T23:47:18.370Z,94152.78
2019-04-20T23:50:05.673Z,94155.73
2019-04-20T23:52:42.628Z,94156.57
2019-04-20T23:54:58.194Z,94157.53
2019-04-20T23:57:21.846Z,94152.52
2019-04-20T23:59:51.537Z,94154.72
